Reno, NV

4:54 AM PST on December 25, 2014 (GMT -0800)
Palomino Valley (Off Pyramid Highway) | Change Station
CLOSE
Current Station
Personal Weather Station
Location: Reno, NV
Elevation: 4410 ft
Nearby Weather Stations

Elev 4410 ft 39.83 °N, 119.64 °W | Updated 3 minutes ago

Partly Cloudy
Partly Cloudy
28.6 °F
Feels Like 18 °F
N
13.0
Wind Variable Wind from WNW
Gusts 21.0 mph

Today
High -- | Low -- °F
--% Chance of Precip.
Yesterday
High -- | Low -- °F
Precip. -- in
7:17 AM 4:38 PM
Waxing Crescent, 16% visible
Pressure 29.97 in
Visibility 10.0 miles
Clouds Overcast 2900 ft
Windchill 18 °F
Dew Point 21 °F
Humidity 72%
Rainfall 0.00 in
Snow Depth Not available.
UV 0 out of 12
Pollen 2.70 out of 12
Air Quality Not available.
Flu Activity Not available.
METAR KRTS 251235Z AUTO 23008KT 10SM OVC029 M02/M08 A2997 RMK AO2

More Conditions Fewer Conditions

Pressure 29.97 in
Visibility 10.0 miles
Clouds Overcast 2900 ft
Windchill 18 °F
Dew Point 21 °F
Humidity 72%
Rainfall 0.00 in
Snow Depth Not available.
UV 0 out of 12
Pollen 2.70 out of 12
Air Quality Not available.
Flu Activity Not available.
METAR KRTS 251235Z AUTO 23008KT 10SM OVC029 M02/M08 A2997 RMK AO2

More Conditions Fewer Conditions

10-Day Weather Forecast

Almanac

Astronomy

Dec. 25, 2014 Rise Set
Actual Time
Civil Twilight
Nautical Twilight
Astronomical Twilight
Moon
Length of Visible Light
Length of Day
Tomorrow will be .
, % of the Moon is Illuminated

Today's Extremes

State Highs State Lows

Community

WunderPhotos

Upload Photos

1,780,266 photos uploaded!

WunderBlogs® & News

Nearby

Air Quality

  Air Quality AQ Index Pollutant
Not available.

Snow Depth

Station Depth Elevation

Earthquake Activity

City Distance Mag. Time & Date
Minimum magnitude displayed is 2.5.

Coastal Water Temperatures

Place Temperature

Nearby Weather Stations